sensor_id;sensor_type;location;lat;lon;timestamp;temperature;humidity
22167;DHT22;11249;52.468;13.776;2022-08-11T00:02:04;19.00;99.90
22167;DHT22;11249;52.468;13.776;2022-08-11T00:04:41;19.00;99.90
22167;DHT22;11249;52.468;13.776;2022-08-11T00:07:09;19.00;99.90
22167;DHT22;11249;52.468;13.776;2022-08-11T00:09:37;18.90;99.90
22167;DHT22;11249;52.468;13.776;2022-08-11T00:12:13;18.90;99.90
22167;DHT22;11249;52.468;13.776;2022-08-11T00:14:42;18.90;99.90
22167;DHT22;11249;52.468;13.776;2022-08-11T00:17:16;18.90;99.90
22167;DHT22;11249;52.468;13.776;2022-08-11T00:19:45;18.80;99.90
22167;DHT22;11249;52.468;13.776;2022-08-11T00:22:40;18.80;99.90
22167;DHT22;11249;52.468;13.776;2022-08-11T00:25:13;18.70;99.90
22167;DHT22;11249;52.468;13.776;2022-08-11T00:27:47;18.60;99.90
22167;DHT22;11249;52.468;13.776;2022-08-11T00:30:15;18.60;99.90
22167;DHT22;11249;52.468;13.776;2022-08-11T00:32:55;18.50;99.90
22167;DHT22;11249;52.468;13.776;2022-08-11T00:35:27;18.50;99.90
22167;DHT22;11249;52.468;13.776;2022-08-11T00:38:24;18.40;99.90
22167;DHT22;11249;52.468;13.776;2022-08-11T00:41:19;18.30;99.90
22167;DHT22;11249;52.468;13.776;2022-08-11T00:50:27;18.20;99.90
22167;DHT22;11249;52.468;13.776;2022-08-11T00:56:23;18.10;99.90
22167;DHT22;11249;52.468;13.776;2022-08-11T00:59:18;18.10;99.90
22167;DHT22;11249;52.468;13.776;2022-08-11T01:05:02;18.00;99.90
22167;DHT22;11249;52.468;13.776;2022-08-11T01:10:53;18.00;99.90
22167;DHT22;11249;52.468;13.776;2022-08-11T01:19:17;17.80;99.90
22167;DHT22;11249;52.468;13.776;2022-08-11T01:31:16;17.70;99.90
22167;DHT22;11249;52.468;13.776;2022-08-11T01:34:21;17.60;99.90
22167;DHT22;11249;52.468;13.776;2022-08-11T01:43:18;17.50;99.90
22167;DHT22;11249;52.468;13.776;2022-08-11T01:52:22;17.40;99.90
22167;DHT22;11249;52.468;13.776;2022-08-11T01:55:17;17.30;99.90
22167;DHT22;11249;52.468;13.776;2022-08-11T01:58:16;17.30;99.90
22167;DHT22;11249;52.468;13.776;2022-08-11T02:01:44;17.20;99.90
22167;DHT22;11249;52.468;13.776;2022-08-11T02:04:33;17.20;99.90
22167;DHT22;11249;52.468;13.776;2022-08-11T02:07:28;17.20;99.90
22167;DHT22;11249;52.468;13.776;2022-08-11T02:13:46;17.10;99.90
22167;DHT22;11249;52.468;13.776;2022-08-11T02:19:32;17.00;99.90
22167;DHT22;11249;52.468;13.776;2022-08-11T02:25:41;16.90;99.90
22167;DHT22;11249;52.468;13.776;2022-08-11T02:30:58;16.90;99.90
22167;DHT22;11249;52.468;13.776;2022-08-11T02:43:00;16.60;99.90
22167;DHT22;11249;52.468;13.776;2022-08-11T02:45:41;16.60;99.90
22167;DHT22;11249;52.468;13.776;2022-08-11T02:48:37;16.50;99.90
22167;DHT22;11249;52.468;13.776;2022-08-11T02:52:08;16.50;99.90
22167;DHT22;11249;52.468;13.776;2022-08-11T02:55:17;16.50;99.90
22167;DHT22;11249;52.468;13.776;2022-08-11T02:58:21;16.40;99.90
22167;DHT22;11249;52.468;13.776;2022-08-11T03:03:52;16.40;99.90
22167;DHT22;11249;52.468;13.776;2022-08-11T03:06:34;16.40;99.90
22167;DHT22;11249;52.468;13.776;2022-08-11T03:09:28;16.30;99.90
22167;DHT22;11249;52.468;13.776;2022-08-11T03:12:12;16.30;99.90
22167;DHT22;11249;52.468;13.776;2022-08-11T03:15:09;16.30;99.90
22167;DHT22;11249;52.468;13.776;2022-08-11T03:18:22;16.30;99.90
22167;DHT22;11249;52.468;13.776;2022-08-11T03:20:57;16.20;99.90
22167;DHT22;11249;52.468;13.776;2022-08-11T03:23:50;16.20;99.90
22167;DHT22;11249;52.468;13.776;2022-08-11T03:26:34;16.10;99.90
22167;DHT22;11249;52.468;13.776;2022-08-11T03:29:26;16.10;99.90
22167;DHT22;11249;52.468;13.776;2022-08-11T03:32:10;16.10;99.90
22167;DHT22;11249;52.468;13.776;2022-08-11T03:34:45;16.00;99.90
22167;DHT22;11249;52.468;13.776;2022-08-11T03:40:29;16.00;99.90
22167;DHT22;11249;52.468;13.776;2022-08-11T03:43:36;15.90;99.90
22167;DHT22;11249;52.468;13.776;2022-08-11T03:46:55;15.90;99.90
22167;DHT22;11249;52.468;13.776;2022-08-11T03:49:59;15.90;99.90
22167;DHT22;11249;52.468;13.776;2022-08-11T04:02:16;15.80;99.90
22167;DHT22;11249;52.468;13.776;2022-08-11T04:20:48;15.70;99.90
22167;DHT22;11249;52.468;13.776;2022-08-11T04:30:10;15.60;99.90
22167;DHT22;11249;52.468;13.776;2022-08-11T04:48:52;15.60;99.90
22167;DHT22;11249;52.468;13.776;2022-08-11T04:56:19;15.60;99.90
22167;DHT22;11249;52.468;13.776;2022-08-11T05:02:53;15.70;99.90
22167;DHT22;11249;52.468;13.776;2022-08-11T05:05:51;15.70;99.90
22167;DHT22;11249;52.468;13.776;2022-08-11T05:12:05;15.80;99.90
22167;DHT22;11249;52.468;13.776;2022-08-11T05:14:59;15.80;99.90
22167;DHT22;11249;52.468;13.776;2022-08-11T05:17:57;15.90;99.90
22167;DHT22;11249;52.468;13.776;2022-08-11T05:20:56;15.90;99.90
22167;DHT22;11249;52.468;13.776;2022-08-11T05:24:22;15.90;99.90
22167;DHT22;11249;52.468;13.776;2022-08-11T05:27:15;16.00;99.90
22167;DHT22;11249;52.468;13.776;2022-08-11T05:30:06;16.10;99.90
22167;DHT22;11249;52.468;13.776;2022-08-11T05:33:07;16.10;99.90
22167;DHT22;11249;52.468;13.776;2022-08-11T05:36:11;16.30;99.90
22167;DHT22;11249;52.468;13.776;2022-08-11T05:38:59;16.40;99.90
22167;DHT22;11249;52.468;13.776;2022-08-11T05:42:04;16.60;99.90
22167;DHT22;11249;52.468;13.776;2022-08-11T05:45:11;16.70;99.90
22167;DHT22;11249;52.468;13.776;2022-08-11T05:48:34;16.80;99.90
22167;DHT22;11249;52.468;13.776;2022-08-11T05:51:53;17.00;99.90
22167;DHT22;11249;52.468;13.776;2022-08-11T05:54:42;17.10;99.90
22167;DHT22;11249;52.468;13.776;2022-08-11T05:57:36;17.20;99.90
22167;DHT22;11249;52.468;13.776;2022-08-11T06:00:18;17.30;99.90
22167;DHT22;11249;52.468;13.776;2022-08-11T06:02:54;17.40;99.90
22167;DHT22;11249;52.468;13.776;2022-08-11T06:05:22;17.50;99.90
22167;DHT22;11249;52.468;13.776;2022-08-11T06:08:08;17.50;99.90
22167;DHT22;11249;52.468;13.776;2022-08-11T06:10:37;17.60;99.90
22167;DHT22;11249;52.468;13.776;2022-08-11T06:13:14;17.80;99.90
22167;DHT22;11249;52.468;13.776;2022-08-11T06:15:46;17.90;99.90
22167;DHT22;11249;52.468;13.776;2022-08-11T06:18:20;18.00;99.90
22167;DHT22;11249;52.468;13.776;2022-08-11T06:20:49;18.10;99.90
22167;DHT22;11249;52.468;13.776;2022-08-11T06:23:29;18.20;99.90
22167;DHT22;11249;52.468;13.776;2022-08-11T06:26:08;18.30;99.90
22167;DHT22;11249;52.468;13.776;2022-08-11T06:28:44;18.40;99.90
22167;DHT22;11249;52.468;13.776;2022-08-11T06:31:19;18.50;99.90
22167;DHT22;11249;52.468;13.776;2022-08-11T06:37:23;18.90;99.90
22167;DHT22;11249;52.468;13.776;2022-08-11T06:43:22;19.30;99.90
22167;DHT22;11249;52.468;13.776;2022-08-11T06:45:59;19.40;99.90
22167;DHT22;11249;52.468;13.776;2022-08-11T06:48:43;19.50;99.90
22167;DHT22;11249;52.468;13.776;2022-08-11T06:51:17;19.60;99.90
22167;DHT22;11249;52.468;13.776;2022-08-11T06:53:54;19.60;99.90
22167;DHT22;11249;52.468;13.776;2022-08-11T06:56:35;19.80;99.90
22167;DHT22;11249;52.468;13.776;2022-08-11T06:59:47;19.90;99.90
22167;DHT22;11249;52.468;13.776;2022-08-11T07:03:07;20.10;99.90
22167;DHT22;11249;52.468;13.776;2022-08-11T07:05:46;20.20;99.90
22167;DHT22;11249;52.468;13.776;2022-08-11T07:12:05;20.50;99.90
22167;DHT22;11249;52.468;13.776;2022-08-11T07:14:56;20.70;99.90
22167;DHT22;11249;52.468;13.776;2022-08-11T07:17:50;20.80;99.90
22167;DHT22;11249;52.468;13.776;2022-08-11T07:20:45;20.90;99.90
22167;DHT22;11249;52.468;13.776;2022-08-11T07:23:52;21.10;99.90
22167;DHT22;11249;52.468;13.776;2022-08-11T07:27:00;21.20;99.90
22167;DHT22;11249;52.468;13.776;2022-08-11T07:30:07;21.40;99.90
22167;DHT22;11249;52.468;13.776;2022-08-11T07:32:52;21.50;99.90
22167;DHT22;11249;52.468;13.776;2022-08-11T07:35:37;21.70;99.90
22167;DHT22;11249;52.468;13.776;2022-08-11T07:38:15;21.90;99.90
22167;DHT22;11249;52.468;13.776;2022-08-11T07:40:51;22.00;99.90
22167;DHT22;11249;52.468;13.776;2022-08-11T07:43:24;22.20;99.90
22167;DHT22;11249;52.468;13.776;2022-08-11T07:45:50;22.40;99.90
22167;DHT22;11249;52.468;13.776;2022-08-11T07:48:56;22.50;99.90
22167;DHT22;11249;52.468;13.776;2022-08-11T07:51:43;22.60;99.90
22167;DHT22;11249;52.468;13.776;2022-08-11T07:54:35;22.70;99.90
22167;DHT22;11249;52.468;13.776;2022-08-11T07:57:16;22.80;99.90
22167;DHT22;11249;52.468;13.776;2022-08-11T08:00:22;22.90;99.90
22167;DHT22;11249;52.468;13.776;2022-08-11T08:03:18;23.10;99.90
22167;DHT22;11249;52.468;13.776;2022-08-11T08:06:20;23.20;99.90
22167;DHT22;11249;52.468;13.776;2022-08-11T08:09:08;23.30;99.90
22167;DHT22;11249;52.468;13.776;2022-08-11T08:12:03;23.40;99.90
22167;DHT22;11249;52.468;13.776;2022-08-11T08:14:53;23.50;99.90
22167;DHT22;11249;52.468;13.776;2022-08-11T08:17:45;23.50;99.90
22167;DHT22;11249;52.468;13.776;2022-08-11T08:20:45;23.70;99.90
22167;DHT22;11249;52.468;13.776;2022-08-11T08:23:22;23.70;99.90
22167;DHT22;11249;52.468;13.776;2022-08-11T08:26:08;23.90;99.90
22167;DHT22;11249;52.468;13.776;2022-08-11T08:28:57;23.90;99.90
22167;DHT22;11249;52.468;13.776;2022-08-11T08:31:54;24.00;99.90
22167;DHT22;11249;52.468;13.776;2022-08-11T08:34:22;24.10;99.90
22167;DHT22;11249;52.468;13.776;2022-08-11T08:36:50;24.20;99.90
22167;DHT22;11249;52.468;13.776;2022-08-11T08:39:24;24.30;99.90
22167;DHT22;11249;52.468;13.776;2022-08-11T08:41:58;24.30;99.90
22167;DHT22;11249;52.468;13.776;2022-08-11T08:44:25;24.30;99.90
22167;DHT22;11249;52.468;13.776;2022-08-11T08:47:15;24.40;99.90
22167;DHT22;11249;52.468;13.776;2022-08-11T08:50:15;24.50;99.90
22167;DHT22;11249;52.468;13.776;2022-08-11T08:53:00;24.70;99.90
22167;DHT22;11249;52.468;13.776;2022-08-11T08:55:38;24.70;99.90
22167;DHT22;11249;52.468;13.776;2022-08-11T08:58:14;24.80;99.90
22167;DHT22;11249;52.468;13.776;2022-08-11T09:00:50;24.90;99.90
22167;DHT22;11249;52.468;13.776;2022-08-11T09:03:18;25.00;99.90
22167;DHT22;11249;52.468;13.776;2022-08-11T09:06:14;25.20;99.90
22167;DHT22;11249;52.468;13.776;2022-08-11T09:08:45;25.10;99.90
22167;DHT22;11249;52.468;13.776;2022-08-11T09:11:22;25.30;99.90
22167;DHT22;11249;52.468;13.776;2022-08-11T09:14:08;25.50;99.90
22167;DHT22;11249;52.468;13.776;2022-08-11T09:16:42;25.40;99.90
22167;DHT22;11249;52.468;13.776;2022-08-11T09:19:09;25.50;99.90
22167;DHT22;11249;52.468;13.776;2022-08-11T09:21:40;25.40;99.90
22167;DHT22;11249;52.468;13.776;2022-08-11T09:24:17;25.50;99.90
22167;DHT22;11249;52.468;13.776;2022-08-11T09:27:05;25.70;99.90
22167;DHT22;11249;52.468;13.776;2022-08-11T09:29:39;25.80;99.90
22167;DHT22;11249;52.468;13.776;2022-08-11T09:32:06;25.90;99.90
22167;DHT22;11249;52.468;13.776;2022-08-11T09:34:40;26.00;99.90
22167;DHT22;11249;52.468;13.776;2022-08-11T09:37:08;26.10;99.90
22167;DHT22;11249;52.468;13.776;2022-08-11T09:40:20;26.20;99.90
22167;DHT22;11249;52.468;13.776;2022-08-11T09:43:04;26.20;99.90
22167;DHT22;11249;52.468;13.776;2022-08-11T09:45:56;26.50;99.90
22167;DHT22;11249;52.468;13.776;2022-08-11T09:48:42;26.60;99.90
22167;DHT22;11249;52.468;13.776;2022-08-11T09:51:16;26.50;99.90
22167;DHT22;11249;52.468;13.776;2022-08-11T09:53:43;26.30;99.90
22167;DHT22;11249;52.468;13.776;2022-08-11T09:56:29;26.30;99.90
22167;DHT22;11249;52.468;13.776;2022-08-11T09:59:22;26.30;99.90
22167;DHT22;11249;52.468;13.776;2022-08-11T10:01:57;26.40;99.90
22167;DHT22;11249;52.468;13.776;2022-08-11T10:04:40;26.50;99.90
22167;DHT22;11249;52.468;13.776;2022-08-11T10:07:15;26.60;99.90
22167;DHT22;11249;52.468;13.776;2022-08-11T10:09:56;26.70;99.90
22167;DHT22;11249;52.468;13.776;2022-08-11T10:12:37;26.80;99.90
22167;DHT22;11249;52.468;13.776;2022-08-11T10:15:11;27.00;99.90
22167;DHT22;11249;52.468;13.776;2022-08-11T10:18:33;27.00;99.90
22167;DHT22;11249;52.468;13.776;2022-08-11T10:21:28;27.10;99.90
22167;DHT22;11249;52.468;13.776;2022-08-11T10:23:58;27.10;99.60
22167;DHT22;11249;52.468;13.776;2022-08-11T10:26:52;27.20;99.30
22167;DHT22;11249;52.468;13.776;2022-08-11T10:32:21;27.60;99.70
22167;DHT22;11249;52.468;13.776;2022-08-11T10:35:27;27.60;99.90
22167;DHT22;11249;52.468;13.776;2022-08-11T10:37:54;27.60;99.00
22167;DHT22;11249;52.468;13.776;2022-08-11T10:40:38;27.70;98.80
22167;DHT22;11249;52.468;13.776;2022-08-11T10:43:06;27.80;98.20
22167;DHT22;11249;52.468;13.776;2022-08-11T10:46:06;27.80;98.50
22167;DHT22;11249;52.468;13.776;2022-08-11T10:49:07;28.10;98.70
22167;DHT22;11249;52.468;13.776;2022-08-11T10:51:41;28.40;97.90
22167;DHT22;11249;52.468;13.776;2022-08-11T10:54:27;28.70;97.30
22167;DHT22;11249;52.468;13.776;2022-08-11T10:57:19;28.90;97.00
22167;DHT22;11249;52.468;13.776;2022-08-11T11:00:05;28.90;96.70
22167;DHT22;11249;52.468;13.776;2022-08-11T11:02:40;29.20;96.90
22167;DHT22;11249;52.468;13.776;2022-08-11T11:05:15;29.50;96.40
22167;DHT22;11249;52.468;13.776;2022-08-11T11:07:59;29.70;95.60
22167;DHT22;11249;52.468;13.776;2022-08-11T11:10:39;29.90;96.20
22167;DHT22;11249;52.468;13.776;2022-08-11T11:13:06;30.10;95.70
22167;DHT22;11249;52.468;13.776;2022-08-11T11:15:58;30.20;95.30
22167;DHT22;11249;52.468;13.776;2022-08-11T11:18:53;30.30;95.60
22167;DHT22;11249;52.468;13.776;2022-08-11T11:21:27;30.60;95.40
22167;DHT22;11249;52.468;13.776;2022-08-11T11:24:14;30.70;93.80
22167;DHT22;11249;52.468;13.776;2022-08-11T11:26:50;30.70;95.50
22167;DHT22;11249;52.468;13.776;2022-08-11T11:29:53;30.90;93.70
22167;DHT22;11249;52.468;13.776;2022-08-11T11:35:25;31.20;93.70
22167;DHT22;11249;52.468;13.776;2022-08-11T11:37:57;31.50;92.30
22167;DHT22;11249;52.468;13.776;2022-08-11T11:40:34;31.70;92.80
22167;DHT22;11249;52.468;13.776;2022-08-11T11:43:03;32.10;91.80
22167;DHT22;11249;52.468;13.776;2022-08-11T11:45:30;32.40;93.20
22167;DHT22;11249;52.468;13.776;2022-08-11T11:48:05;32.80;92.70
22167;DHT22;11249;52.468;13.776;2022-08-11T11:50:45;33.00;92.10
22167;DHT22;11249;52.468;13.776;2022-08-11T11:53:12;32.60;92.50
22167;DHT22;11249;52.468;13.776;2022-08-11T11:55:46;32.80;93.70
22167;DHT22;11249;52.468;13.776;2022-08-11T11:58:13;32.60;91.60
22167;DHT22;11249;52.468;13.776;2022-08-11T12:01:05;32.60;91.70
22167;DHT22;11249;52.468;13.776;2022-08-11T12:03:50;32.60;91.20
22167;DHT22;11249;52.468;13.776;2022-08-11T12:06:21;32.60;90.50
22167;DHT22;11249;52.468;13.776;2022-08-11T12:08:49;32.80;88.30
22167;DHT22;11249;52.468;13.776;2022-08-11T12:11:25;33.00;90.10
22167;DHT22;11249;52.468;13.776;2022-08-11T12:14:15;33.60;90.20
22167;DHT22;11249;52.468;13.776;2022-08-11T12:16:49;33.50;87.90
22167;DHT22;11249;52.468;13.776;2022-08-11T12:19:18;33.70;91.70
22167;DHT22;11249;52.468;13.776;2022-08-11T12:21:56;33.60;87.80
22167;DHT22;11249;52.468;13.776;2022-08-11T12:24:49;34.00;87.10
22167;DHT22;11249;52.468;13.776;2022-08-11T12:27:34;33.70;89.00
22167;DHT22;11249;52.468;13.776;2022-08-11T12:30:08;33.20;86.80
22167;DHT22;11249;52.468;13.776;2022-08-11T12:32:42;32.70;84.70
22167;DHT22;11249;52.468;13.776;2022-08-11T12:35:16;33.60;85.50
22167;DHT22;11249;52.468;13.776;2022-08-11T12:37:51;34.40;84.30
22167;DHT22;11249;52.468;13.776;2022-08-11T12:40:37;34.80;83.50
22167;DHT22;11249;52.468;13.776;2022-08-11T12:43:44;35.30;82.40
22167;DHT22;11249;52.468;13.776;2022-08-11T12:46:36;35.70;84.30
22167;DHT22;11249;52.468;13.776;2022-08-11T12:49:19;35.80;79.90
22167;DHT22;11249;52.468;13.776;2022-08-11T12:52:16;35.90;79.70
22167;DHT22;11249;52.468;13.776;2022-08-11T12:55:09;35.70;77.10
22167;DHT22;11249;52.468;13.776;2022-08-11T12:58:06;35.90;83.60
22167;DHT22;11249;52.468;13.776;2022-08-11T13:00:50;36.10;82.40
22167;DHT22;11249;52.468;13.776;2022-08-11T13:03:38;36.00;80.90
22167;DHT22;11249;52.468;13.776;2022-08-11T13:06:31;35.70;80.80
22167;DHT22;11249;52.468;13.776;2022-08-11T13:08:59;36.20;83.20
22167;DHT22;11249;52.468;13.776;2022-08-11T13:11:40;36.20;75.50
22167;DHT22;11249;52.468;13.776;2022-08-11T13:14:26;36.20;75.00
22167;DHT22;11249;52.468;13.776;2022-08-11T13:17:00;35.90;74.80
22167;DHT22;11249;52.468;13.776;2022-08-11T13:20:10;35.60;75.00
22167;DHT22;11249;52.468;13.776;2022-08-11T13:22:40;35.90;74.30
22167;DHT22;11249;52.468;13.776;2022-08-11T13:25:18;35.60;72.70
22167;DHT22;11249;52.468;13.776;2022-08-11T13:27:56;35.10;72.70
22167;DHT22;11249;52.468;13.776;2022-08-11T13:30:30;35.10;73.60
22167;DHT22;11249;52.468;13.776;2022-08-11T13:33:24;34.60;73.70
22167;DHT22;11249;52.468;13.776;2022-08-11T13:35:53;34.80;75.00
22167;DHT22;11249;52.468;13.776;2022-08-11T13:38:26;34.40;73.90
22167;DHT22;11249;52.468;13.776;2022-08-11T13:41:00;34.50;73.80
22167;DHT22;11249;52.468;13.776;2022-08-11T13:43:27;35.00;72.40
22167;DHT22;11249;52.468;13.776;2022-08-11T13:45:55;35.10;72.00
22167;DHT22;11249;52.468;13.776;2022-08-11T13:48:56;35.20;71.10
22167;DHT22;11249;52.468;13.776;2022-08-11T13:51:27;35.10;72.50
22167;DHT22;11249;52.468;13.776;2022-08-11T13:54:10;36.00;73.30
22167;DHT22;11249;52.468;13.776;2022-08-11T13:56:39;36.30;71.50
22167;DHT22;11249;52.468;13.776;2022-08-11T13:59:17;36.90;71.70
22167;DHT22;11249;52.468;13.776;2022-08-11T14:01:59;37.60;70.80
22167;DHT22;11249;52.468;13.776;2022-08-11T14:04:57;36.90;70.00
22167;DHT22;11249;52.468;13.776;2022-08-11T14:07:33;36.90;67.50
22167;DHT22;11249;52.468;13.776;2022-08-11T14:10:08;36.70;67.70
22167;DHT22;11249;52.468;13.776;2022-08-11T14:12:51;36.80;65.60
22167;DHT22;11249;52.468;13.776;2022-08-11T14:15:45;36.40;64.80
22167;DHT22;11249;52.468;13.776;2022-08-11T14:18:18;35.80;65.60
22167;DHT22;11249;52.468;13.776;2022-08-11T14:20:58;34.80;67.00
22167;DHT22;11249;52.468;13.776;2022-08-11T14:23:46;35.00;69.00
22167;DHT22;11249;52.468;13.776;2022-08-11T14:26:21;35.00;67.40
22167;DHT22;11249;52.468;13.776;2022-08-11T14:29:00;35.80;67.50
22167;DHT22;11249;52.468;13.776;2022-08-11T14:31:43;36.40;67.70
22167;DHT22;11249;52.468;13.776;2022-08-11T14:34:11;37.10;65.50
22167;DHT22;11249;52.468;13.776;2022-08-11T14:36:49;36.20;65.20
22167;DHT22;11249;52.468;13.776;2022-08-11T14:39:29;35.10;65.10
22167;DHT22;11249;52.468;13.776;2022-08-11T14:42:04;34.90;65.00
22167;DHT22;11249;52.468;13.776;2022-08-11T14:45:01;35.10;65.60
22167;DHT22;11249;52.468;13.776;2022-08-11T14:47:31;35.80;65.60
22167;DHT22;11249;52.468;13.776;2022-08-11T14:50:11;36.30;65.30
22167;DHT22;11249;52.468;13.776;2022-08-11T14:52:47;36.90;65.30
22167;DHT22;11249;52.468;13.776;2022-08-11T14:55:23;36.40;65.60
22167;DHT22;11249;52.468;13.776;2022-08-11T14:58:11;36.60;64.40
22167;DHT22;11249;52.468;13.776;2022-08-11T15:00:45;36.40;63.80
22167;DHT22;11249;52.468;13.776;2022-08-11T15:03:13;36.50;63.10
22167;DHT22;11249;52.468;13.776;2022-08-11T15:05:55;37.00;63.50
22167;DHT22;11249;52.468;13.776;2022-08-11T15:08:32;36.90;60.60
22167;DHT22;11249;52.468;13.776;2022-08-11T15:11:29;36.40;61.00
22167;DHT22;11249;52.468;13.776;2022-08-11T15:14:22;36.60;61.00
22167;DHT22;11249;52.468;13.776;2022-08-11T15:17:21;37.10;60.60
22167;DHT22;11249;52.468;13.776;2022-08-11T15:19:55;37.20;60.40
22167;DHT22;11249;52.468;13.776;2022-08-11T15:22:48;37.10;60.40
22167;DHT22;11249;52.468;13.776;2022-08-11T15:25:34;37.40;62.60
22167;DHT22;11249;52.468;13.776;2022-08-11T15:28:10;37.40;58.70
22167;DHT22;11249;52.468;13.776;2022-08-11T15:31:01;36.20;59.90
22167;DHT22;11249;52.468;13.776;2022-08-11T15:33:57;36.20;61.20
22167;DHT22;11249;52.468;13.776;2022-08-11T15:36:56;36.60;61.70
22167;DHT22;11249;52.468;13.776;2022-08-11T15:39:48;36.10;61.50
22167;DHT22;11249;52.468;13.776;2022-08-11T15:45:57;36.10;62.60
22167;DHT22;11249;52.468;13.776;2022-08-11T15:48:44;36.00;61.50
22167;DHT22;11249;52.468;13.776;2022-08-11T15:51:48;36.50;62.80
22167;DHT22;11249;52.468;13.776;2022-08-11T15:54:18;36.00;61.40
22167;DHT22;11249;52.468;13.776;2022-08-11T15:56:54;36.20;62.60
22167;DHT22;11249;52.468;13.776;2022-08-11T15:59:31;36.70;62.00
22167;DHT22;11249;52.468;13.776;2022-08-11T16:02:20;36.10;60.80
22167;DHT22;11249;52.468;13.776;2022-08-11T16:05:14;36.20;62.60
22167;DHT22;11249;52.468;13.776;2022-08-11T16:08:03;36.00;61.50
22167;DHT22;11249;52.468;13.776;2022-08-11T16:10:41;35.80;62.30
22167;DHT22;11249;52.468;13.776;2022-08-11T16:13:12;36.00;61.50
22167;DHT22;11249;52.468;13.776;2022-08-11T16:15:52;36.00;61.10
22167;DHT22;11249;52.468;13.776;2022-08-11T16:18:55;35.90;61.40
22167;DHT22;11249;52.468;13.776;2022-08-11T16:21:32;35.90;62.10
22167;DHT22;11249;52.468;13.776;2022-08-11T16:24:07;34.90;61.30
22167;DHT22;11249;52.468;13.776;2022-08-11T16:27:02;34.90;61.30
22167;DHT22;11249;52.468;13.776;2022-08-11T16:29:45;34.90;61.00
22167;DHT22;11249;52.468;13.776;2022-08-11T16:32:21;35.00;62.40
22167;DHT22;11249;52.468;13.776;2022-08-11T16:34:56;34.80;61.80
22167;DHT22;11249;52.468;13.776;2022-08-11T16:37:51;34.30;62.70
22167;DHT22;11249;52.468;13.776;2022-08-11T16:40:46;34.20;62.00
22167;DHT22;11249;52.468;13.776;2022-08-11T16:43:17;33.90;63.80
22167;DHT22;11249;52.468;13.776;2022-08-11T16:46:11;34.10;64.30
22167;DHT22;11249;52.468;13.776;2022-08-11T16:49:24;34.10;63.60
22167;DHT22;11249;52.468;13.776;2022-08-11T16:51:56;34.10;63.60
22167;DHT22;11249;52.468;13.776;2022-08-11T16:54:32;33.70;63.20
22167;DHT22;11249;52.468;13.776;2022-08-11T16:57:17;33.00;64.30
22167;DHT22;11249;52.468;13.776;2022-08-11T17:00:06;32.80;65.40
22167;DHT22;11249;52.468;13.776;2022-08-11T17:02:51;32.80;64.60
22167;DHT22;11249;52.468;13.776;2022-08-11T17:05:49;32.90;65.40
22167;DHT22;11249;52.468;13.776;2022-08-11T17:08:46;32.60;65.90
22167;DHT22;11249;52.468;13.776;2022-08-11T17:11:50;31.90;65.70
22167;DHT22;11249;52.468;13.776;2022-08-11T17:14:56;31.70;66.40
22167;DHT22;11249;52.468;13.776;2022-08-11T17:17:33;31.70;67.20
22167;DHT22;11249;52.468;13.776;2022-08-11T17:20:10;31.60;67.90
22167;DHT22;11249;52.468;13.776;2022-08-11T17:22:59;31.50;68.20
22167;DHT22;11249;52.468;13.776;2022-08-11T17:25:53;31.20;68.90
22167;DHT22;11249;52.468;13.776;2022-08-11T17:28:29;31.10;69.50
22167;DHT22;11249;52.468;13.776;2022-08-11T17:31:04;30.90;69.20
22167;DHT22;11249;52.468;13.776;2022-08-11T17:33:57;31.00;69.80
22167;DHT22;11249;52.468;13.776;2022-08-11T17:36:43;30.80;70.10
22167;DHT22;11249;52.468;13.776;2022-08-11T17:39:17;30.70;70.50
22167;DHT22;11249;52.468;13.776;2022-08-11T17:41:45;30.60;70.50
22167;DHT22;11249;52.468;13.776;2022-08-11T17:44:43;30.60;70.60
22167;DHT22;11249;52.468;13.776;2022-08-11T17:47:46;30.50;71.00
22167;DHT22;11249;52.468;13.776;2022-08-11T17:50:52;30.20;70.60
22167;DHT22;11249;52.468;13.776;2022-08-11T17:53:20;30.00;71.40
22167;DHT22;11249;52.468;13.776;2022-08-11T17:56:33;29.80;72.10
22167;DHT22;11249;52.468;13.776;2022-08-11T17:59:20;29.60;73.10
22167;DHT22;11249;52.468;13.776;2022-08-11T18:02:24;29.50;74.30
22167;DHT22;11249;52.468;13.776;2022-08-11T18:05:15;29.30;74.00
22167;DHT22;11249;52.468;13.776;2022-08-11T18:07:53;29.10;74.70
22167;DHT22;11249;52.468;13.776;2022-08-11T18:10:40;29.00;76.30
22167;DHT22;11249;52.468;13.776;2022-08-11T18:13:37;28.70;77.10
22167;DHT22;11249;52.468;13.776;2022-08-11T18:16:24;28.30;77.70
22167;DHT22;11249;52.468;13.776;2022-08-11T18:19:17;28.00;78.10
22167;DHT22;11249;52.468;13.776;2022-08-11T18:22:16;27.80;79.20
22167;DHT22;11249;52.468;13.776;2022-08-11T18:25:11;27.40;80.10
22167;DHT22;11249;52.468;13.776;2022-08-11T18:27:58;27.20;80.80
22167;DHT22;11249;52.468;13.776;2022-08-11T18:30:56;26.90;81.60
22167;DHT22;11249;52.468;13.776;2022-08-11T18:33:47;26.60;82.70
22167;DHT22;11249;52.468;13.776;2022-08-11T18:36:47;26.40;83.40
22167;DHT22;11249;52.468;13.776;2022-08-11T18:40:04;26.10;84.60
22167;DHT22;11249;52.468;13.776;2022-08-11T18:42:54;25.90;85.00
22167;DHT22;11249;52.468;13.776;2022-08-11T18:45:58;25.50;85.40
22167;DHT22;11249;52.468;13.776;2022-08-11T18:48:49;25.30;86.10
22167;DHT22;11249;52.468;13.776;2022-08-11T18:51:51;25.10;87.10
22167;DHT22;11249;52.468;13.776;2022-08-11T18:54:46;24.90;87.40
22167;DHT22;11249;52.468;13.776;2022-08-11T18:57:38;24.70;88.30
22167;DHT22;11249;52.468;13.776;2022-08-11T19:00:33;24.50;89.30
22167;DHT22;11249;52.468;13.776;2022-08-11T19:03:20;24.30;89.80
22167;DHT22;11249;52.468;13.776;2022-08-11T19:06:17;24.10;89.90
22167;DHT22;11249;52.468;13.776;2022-08-11T19:09:13;23.90;90.20
22167;DHT22;11249;52.468;13.776;2022-08-11T19:12:08;23.80;90.40
22167;DHT22;11249;52.468;13.776;2022-08-11T19:15:02;23.60;90.70
22167;DHT22;11249;52.468;13.776;2022-08-11T19:17:56;23.50;91.00
22167;DHT22;11249;52.468;13.776;2022-08-11T19:20:42;23.30;91.30
22167;DHT22;11249;52.468;13.776;2022-08-11T19:23:41;23.20;91.50
22167;DHT22;11249;52.468;13.776;2022-08-11T19:26:28;23.10;91.80
22167;DHT22;11249;52.468;13.776;2022-08-11T19:29:21;22.90;91.90
22167;DHT22;11249;52.468;13.776;2022-08-11T19:32:28;22.80;92.10
22167;DHT22;11249;52.468;13.776;2022-08-11T19:35:21;22.70;92.10
22167;DHT22;11249;52.468;13.776;2022-08-11T19:38:07;22.50;92.40
22167;DHT22;11249;52.468;13.776;2022-08-11T19:40:59;22.40;92.80